sensor_id;sensor_type;location;lat;lon;timestamp;P1;durP1;ratioP1;P2;durP2;ratioP2
64022;SDS011;50264;52.088;5.296;2022-09-09T00:00:06;3.7;;;2.1;;
64022;SDS011;50264;52.088;5.296;2022-09-09T00:01:51;4.3;;;2.31;;
64022;SDS011;50264;52.088;5.296;2022-09-09T00:03:36;2.31;;;1.9;;
64022;SDS011;50264;52.088;5.296;2022-09-09T00:05:19;4.3;;;2.4;;
64022;SDS011;50264;52.088;5.296;2022-09-09T00:08:53;2.8;;;2.1;;
64022;SDS011;50264;52.088;5.296;2022-09-09T00:10:39;4.1;;;2.21;;
64022;SDS011;50264;52.088;5.296;2022-09-09T00:12:19;3.5;;;2.21;;
64022;SDS011;50264;52.088;5.296;2022-09-09T00:14:13;3.1;;;2.31;;
64022;SDS011;50264;52.088;5.296;2022-09-09T00:15:59;4.0;;;2.9;;
64022;SDS011;50264;52.088;5.296;2022-09-09T00:17:42;2.4;;;2.21;;
64022;SDS011;50264;52.088;5.296;2022-09-09T00:21:16;4.41;;;2.9;;
64022;SDS011;50264;52.088;5.296;2022-09-09T00:22:55;5.7;;;2.9;;
64022;SDS011;50264;52.088;5.296;2022-09-09T00:24:41;5.5;;;2.6;;
64022;SDS011;50264;52.088;5.296;2022-09-09T00:26:21;3.7;;;2.9;;
64022;SDS011;50264;52.088;5.296;2022-09-09T00:28:09;7.1;;;2.7;;
64022;SDS011;50264;52.088;5.296;2022-09-09T00:31:37;2.9;;;2.5;;
64022;SDS011;50264;52.088;5.296;2022-09-09T00:33:16;2.4;;;2.1;;
64022;SDS011;50264;52.088;5.296;2022-09-09T00:34:56;3.2;;;2.7;;
64022;SDS011;50264;52.088;5.296;2022-09-09T00:36:38;4.8;;;2.6;;
64022;SDS011;50264;52.088;5.296;2022-09-09T00:39:57;4.2;;;2.9;;
64022;SDS011;50264;52.088;5.296;2022-09-09T00:41:44;4.2;;;2.6;;
64022;SDS011;50264;52.088;5.296;2022-09-09T00:43:38;2.7;;;2.5;;
64022;SDS011;50264;52.088;5.296;2022-09-09T00:47:27;4.0;;;2.7;;
64022;SDS011;50264;52.088;5.296;2022-09-09T00:49:33;3.7;;;2.9;;
64022;SDS011;50264;52.088;5.296;2022-09-09T00:51:23;3.0;;;2.7;;
64022;SDS011;50264;52.088;5.296;2022-09-09T00:55:06;6.0;;;3.1;;
64022;SDS011;50264;52.088;5.296;2022-09-09T00:56:53;4.0;;;2.9;;
64022;SDS011;50264;52.088;5.296;2022-09-09T00:58:42;3.2;;;2.6;;
64022;SDS011;50264;52.088;5.296;2022-09-09T01:00:27;5.4;;;3.4;;
64022;SDS011;50264;52.088;5.296;2022-09-09T01:02:12;4.1;;;3.1;;
64022;SDS011;50264;52.088;5.296;2022-09-09T01:03:54;5.8;;;3.2;;
64022;SDS011;50264;52.088;5.296;2022-09-09T01:07:16;3.1;;;2.7;;
64022;SDS011;50264;52.088;5.296;2022-09-09T01:09:00;4.0;;;2.9;;
64022;SDS011;50264;52.088;5.296;2022-09-09T01:10:57;5.0;;;3.8;;
64022;SDS011;50264;52.088;5.296;2022-09-09T01:12:37;4.3;;;3.6;;
64022;SDS011;50264;52.088;5.296;2022-09-09T01:14:22;7.1;;;3.3;;
64022;SDS011;50264;52.088;5.296;2022-09-09T01:17:50;3.9;;;3.1;;
64022;SDS011;50264;52.088;5.296;2022-09-09T01:19:38;6.8;;;3.7;;
64022;SDS011;50264;52.088;5.296;2022-09-09T01:21:26;4.0;;;3.5;;
64022;SDS011;50264;52.088;5.296;2022-09-09T01:23:19;4.8;;;3.7;;
64022;SDS011;50264;52.088;5.296;2022-09-09T01:25:18;4.8;;;3.9;;
64022;SDS011;50264;52.088;5.296;2022-09-09T01:27:50;6.0;;;3.8;;
64022;SDS011;50264;52.088;5.296;2022-09-09T01:29:31;7.4;;;3.8;;
64022;SDS011;50264;52.088;5.296;2022-09-09T01:31:09;5.11;;;3.8;;
64022;SDS011;50264;52.088;5.296;2022-09-09T01:34:32;4.8;;;3.7;;
64022;SDS011;50264;52.088;5.296;2022-09-09T01:36:17;6.7;;;4.0;;
64022;SDS011;50264;52.088;5.296;2022-09-09T01:38:00;6.3;;;3.7;;
64022;SDS011;50264;52.088;5.296;2022-09-09T01:39:37;4.2;;;3.8;;
64022;SDS011;50264;52.088;5.296;2022-09-09T01:42:55;6.1;;;4.3;;
64022;SDS011;50264;52.088;5.296;2022-09-09T01:44:32;10.7;;;4.41;;
64022;SDS011;50264;52.088;5.296;2022-09-09T01:46:10;4.91;;;3.9;;
64022;SDS011;50264;52.088;5.296;2022-09-09T01:47:48;7.2;;;4.3;;
64022;SDS011;50264;52.088;5.296;2022-09-09T01:51:03;4.61;;;3.7;;
64022;SDS011;50264;52.088;5.296;2022-09-09T01:52:39;4.7;;;4.0;;
64022;SDS011;50264;52.088;5.296;2022-09-09T01:54:16;5.4;;;4.0;;
64022;SDS011;50264;52.088;5.296;2022-09-09T01:57:41;8.5;;;3.7;;
64022;SDS011;50264;52.088;5.296;2022-09-09T01:59:36;5.4;;;3.3;;
64022;SDS011;50264;52.088;5.296;2022-09-09T02:01:26;4.2;;;3.7;;
64022;SDS011;50264;52.088;5.296;2022-09-09T02:03:17;4.2;;;3.8;;
64022;SDS011;50264;52.088;5.296;2022-09-09T02:05:02;5.0;;;3.6;;
64022;SDS011;50264;52.088;5.296;2022-09-09T02:06:53;5.5;;;4.3;;
64022;SDS011;50264;52.088;5.296;2022-09-09T02:10:19;6.0;;;4.0;;
64022;SDS011;50264;52.088;5.296;2022-09-09T02:12:06;3.7;;;3.4;;
64022;SDS011;50264;52.088;5.296;2022-09-09T02:13:48;5.11;;;3.9;;
64022;SDS011;50264;52.088;5.296;2022-09-09T02:15:30;4.5;;;4.1;;
64022;SDS011;50264;52.088;5.296;2022-09-09T02:17:15;5.6;;;3.8;;
64022;SDS011;50264;52.088;5.296;2022-09-09T02:20:41;4.2;;;3.8;;
64022;SDS011;50264;52.088;5.296;2022-09-09T02:22:21;5.4;;;3.8;;
64022;SDS011;50264;52.088;5.296;2022-09-09T02:24:00;4.91;;;4.41;;
64022;SDS011;50264;52.088;5.296;2022-09-09T02:25:41;7.6;;;5.0;;
64022;SDS011;50264;52.088;5.296;2022-09-09T02:28:58;6.4;;;4.3;;
64022;SDS011;50264;52.088;5.296;2022-09-09T02:30:38;9.0;;;4.2;;
64022;SDS011;50264;52.088;5.296;2022-09-09T02:32:19;5.2;;;4.41;;
64022;SDS011;50264;52.088;5.296;2022-09-09T02:33:59;5.2;;;4.7;;
64022;SDS011;50264;52.088;5.296;2022-09-09T02:37:18;5.4;;;4.7;;
64022;SDS011;50264;52.088;5.296;2022-09-09T02:38:58;5.3;;;4.8;;
64022;SDS011;50264;52.088;5.296;2022-09-09T02:40:35;5.3;;;4.7;;
64022;SDS011;50264;52.088;5.296;2022-09-09T02:42:11;5.0;;;4.5;;
64022;SDS011;50264;52.088;5.296;2022-09-09T02:45:25;5.8;;;4.5;;
64022;SDS011;50264;52.088;5.296;2022-09-09T02:47:12;6.2;;;5.3;;
64022;SDS011;50264;52.088;5.296;2022-09-09T02:49:02;4.91;;;4.41;;
64022;SDS011;50264;52.088;5.296;2022-09-09T02:50:46;5.4;;;4.8;;
64022;SDS011;50264;52.088;5.296;2022-09-09T02:52:32;6.3;;;4.8;;
64022;SDS011;50264;52.088;5.296;2022-09-09T02:56:04;6.1;;;4.8;;
64022;SDS011;50264;52.088;5.296;2022-09-09T02:57:47;8.31;;;5.6;;
64022;SDS011;50264;52.088;5.296;2022-09-09T02:59:25;5.11;;;4.61;;
64022;SDS011;50264;52.088;5.296;2022-09-09T03:01:02;7.6;;;5.3;;
64022;SDS011;50264;52.088;5.296;2022-09-09T03:04:15;6.9;;;4.91;;
64022;SDS011;50264;52.088;5.296;2022-09-09T03:05:51;5.4;;;4.91;;
64022;SDS011;50264;52.088;5.296;2022-09-09T03:07:27;5.2;;;4.7;;
64022;SDS011;50264;52.088;5.296;2022-09-09T03:10:40;5.9;;;5.3;;
64022;SDS011;50264;52.088;5.296;2022-09-09T03:12:16;9.0;;;6.4;;
64022;SDS011;50264;52.088;5.296;2022-09-09T03:13:53;7.1;;;5.8;;
64022;SDS011;50264;52.088;5.296;2022-09-09T03:15:31;5.9;;;5.4;;
64022;SDS011;50264;52.088;5.296;2022-09-09T03:18:45;7.0;;;5.0;;
64022;SDS011;50264;52.088;5.296;2022-09-09T03:20:22;6.8;;;6.2;;
64022;SDS011;50264;52.088;5.296;2022-09-09T03:22:00;6.2;;;5.6;;
64022;SDS011;50264;52.088;5.296;2022-09-09T03:25:12;8.0;;;6.6;;
64022;SDS011;50264;52.088;5.296;2022-09-09T03:26:50;7.3;;;6.5;;
64022;SDS011;50264;52.088;5.296;2022-09-09T03:28:31;7.1;;;6.0;;
64022;SDS011;50264;52.088;5.296;2022-09-09T03:31:44;13.3;;;6.3;;
64022;SDS011;50264;52.088;5.296;2022-09-09T03:33:20;8.31;;;5.3;;
64022;SDS011;50264;52.088;5.296;2022-09-09T03:34:56;7.8;;;5.9;;
64022;SDS011;50264;52.088;5.296;2022-09-09T03:36:32;7.0;;;6.3;;
64022;SDS011;50264;52.088;5.296;2022-09-09T03:39:46;9.0;;;6.8;;
64022;SDS011;50264;52.088;5.296;2022-09-09T03:41:23;7.1;;;5.8;;
64022;SDS011;50264;52.088;5.296;2022-09-09T03:43:01;6.9;;;6.0;;
64022;SDS011;50264;52.088;5.296;2022-09-09T03:46:13;9.1;;;5.2;;
64022;SDS011;50264;52.088;5.296;2022-09-09T03:47:50;7.1;;;5.8;;
64022;SDS011;50264;52.088;5.296;2022-09-09T03:49:28;8.1;;;7.0;;
64022;SDS011;50264;52.088;5.296;2022-09-09T03:51:05;7.4;;;6.6;;
64022;SDS011;50264;52.088;5.296;2022-09-09T03:54:18;7.7;;;6.9;;
64022;SDS011;50264;52.088;5.296;2022-09-09T03:55:55;9.21;;;6.9;;
64022;SDS011;50264;52.088;5.296;2022-09-09T03:57:34;9.1;;;6.6;;
64022;SDS011;50264;52.088;5.296;2022-09-09T04:00:52;8.6;;;7.0;;
64022;SDS011;50264;52.088;5.296;2022-09-09T04:02:30;8.9;;;7.8;;
64022;SDS011;50264;52.088;5.296;2022-09-09T04:04:07;11.8;;;7.4;;
64022;SDS011;50264;52.088;5.296;2022-09-09T04:05:48;8.9;;;7.6;;
64022;SDS011;50264;52.088;5.296;2022-09-09T04:09:03;9.81;;;7.7;;
64022;SDS011;50264;52.088;5.296;2022-09-09T04:10:39;12.8;;;9.6;;
64022;SDS011;50264;52.088;5.296;2022-09-09T04:12:16;9.0;;;7.9;;
64022;SDS011;50264;52.088;5.296;2022-09-09T04:15:28;10.6;;;8.0;;
64022;SDS011;50264;52.088;5.296;2022-09-09T04:17:06;9.71;;;7.3;;
64022;SDS011;50264;52.088;5.296;2022-09-09T04:18:42;13.3;;;7.9;;
64022;SDS011;50264;52.088;5.296;2022-09-09T04:21:55;8.4;;;7.5;;
64022;SDS011;50264;52.088;5.296;2022-09-09T04:23:31;10.8;;;8.5;;
64022;SDS011;50264;52.088;5.296;2022-09-09T04:25:08;11.7;;;8.9;;
64022;SDS011;50264;52.088;5.296;2022-09-09T04:26:45;10.0;;;8.31;;
64022;SDS011;50264;52.088;5.296;2022-09-09T04:30:01;10.4;;;8.5;;
64022;SDS011;50264;52.088;5.296;2022-09-09T04:31:41;10.1;;;7.8;;
64022;SDS011;50264;52.088;5.296;2022-09-09T04:33:17;14.5;;;9.0;;
64022;SDS011;50264;52.088;5.296;2022-09-09T04:36:31;9.71;;;8.5;;
64022;SDS011;50264;52.088;5.296;2022-09-09T04:38:09;9.9;;;7.9;;
64022;SDS011;50264;52.088;5.296;2022-09-09T04:39:45;11.1;;;7.9;;
64022;SDS011;50264;52.088;5.296;2022-09-09T04:41:21;10.4;;;8.5;;
64022;SDS011;50264;52.088;5.296;2022-09-09T04:44:35;9.0;;;8.1;;
64022;SDS011;50264;52.088;5.296;2022-09-09T04:46:11;10.7;;;8.9;;
64022;SDS011;50264;52.088;5.296;2022-09-09T04:47:47;9.9;;;8.0;;
64022;SDS011;50264;52.088;5.296;2022-09-09T04:51:00;10.21;;;8.5;;
64022;SDS011;50264;52.088;5.296;2022-09-09T04:52:37;14.4;;;9.1;;
64022;SDS011;50264;52.088;5.296;2022-09-09T04:54:13;13.1;;;8.2;;
64022;SDS011;50264;52.088;5.296;2022-09-09T04:57:26;11.9;;;7.9;;
64022;SDS011;50264;52.088;5.296;2022-09-09T04:59:02;11.5;;;8.5;;
64022;SDS011;50264;52.088;5.296;2022-09-09T05:00:38;11.6;;;8.31;;
64022;SDS011;50264;52.088;5.296;2022-09-09T05:02:14;11.3;;;7.9;;
64022;SDS011;50264;52.088;5.296;2022-09-09T05:05:28;10.4;;;7.6;;
64022;SDS011;50264;52.088;5.296;2022-09-09T05:07:04;9.4;;;7.9;;
64022;SDS011;50264;52.088;5.296;2022-09-09T05:08:40;10.21;;;8.2;;
64022;SDS011;50264;52.088;5.296;2022-09-09T05:11:57;9.81;;;8.31;;
64022;SDS011;50264;52.088;5.296;2022-09-09T05:13:34;12.2;;;7.6;;
64022;SDS011;50264;52.088;5.296;2022-09-09T05:15:10;13.1;;;7.7;;
64022;SDS011;50264;52.088;5.296;2022-09-09T05:18:23;13.1;;;7.7;;
64022;SDS011;50264;52.088;5.296;2022-09-09T05:19:59;10.1;;;7.3;;
64022;SDS011;50264;52.088;5.296;2022-09-09T05:21:35;15.0;;;7.4;;
64022;SDS011;50264;52.088;5.296;2022-09-09T05:23:12;10.4;;;8.0;;
64022;SDS011;50264;52.088;5.296;2022-09-09T05:26:26;13.1;;;8.1;;
64022;SDS011;50264;52.088;5.296;2022-09-09T05:28:02;13.1;;;8.1;;
64022;SDS011;50264;52.088;5.296;2022-09-09T05:29:38;8.0;;;7.2;;
64022;SDS011;50264;52.088;5.296;2022-09-09T05:32:55;13.0;;;7.4;;
64022;SDS011;50264;52.088;5.296;2022-09-09T05:34:32;8.1;;;7.3;;
64022;SDS011;50264;52.088;5.296;2022-09-09T05:36:09;10.4;;;7.2;;
64022;SDS011;50264;52.088;5.296;2022-09-09T05:37:47;10.4;;;7.2;;
64022;SDS011;50264;52.088;5.296;2022-09-09T05:41:00;9.6;;;7.5;;
64022;SDS011;50264;52.088;5.296;2022-09-09T05:42:37;10.6;;;7.0;;
64022;SDS011;50264;52.088;5.296;2022-09-09T05:44:13;8.1;;;5.8;;
64022;SDS011;50264;52.088;5.296;2022-09-09T05:47:35;9.81;;;6.6;;
64022;SDS011;50264;52.088;5.296;2022-09-09T05:49:12;12.0;;;7.6;;
64022;SDS011;50264;52.088;5.296;2022-09-09T05:50:52;10.6;;;6.6;;
64022;SDS011;50264;52.088;5.296;2022-09-09T05:52:28;11.3;;;6.0;;
64022;SDS011;50264;52.088;5.296;2022-09-09T05:55:42;9.1;;;6.1;;
64022;SDS011;50264;52.088;5.296;2022-09-09T05:57:19;8.81;;;6.8;;
64022;SDS011;50264;52.088;5.296;2022-09-09T05:58:55;8.1;;;5.8;;
64022;SDS011;50264;52.088;5.296;2022-09-09T06:02:08;15.6;;;6.3;;
64022;SDS011;50264;52.088;5.296;2022-09-09T06:03:45;11.9;;;5.3;;
64022;SDS011;50264;52.088;5.296;2022-09-09T06:05:23;10.9;;;6.2;;
64022;SDS011;50264;52.088;5.296;2022-09-09T06:08:38;12.7;;;6.2;;
64022;SDS011;50264;52.088;5.296;2022-09-09T06:10:16;9.4;;;6.0;;
64022;SDS011;50264;52.088;5.296;2022-09-09T06:11:54;10.3;;;5.4;;
64022;SDS011;50264;52.088;5.296;2022-09-09T06:13:30;11.1;;;6.3;;
64022;SDS011;50264;52.088;5.296;2022-09-09T06:16:46;8.31;;;4.7;;
64022;SDS011;50264;52.088;5.296;2022-09-09T06:18:22;14.2;;;5.5;;
64022;SDS011;50264;52.088;5.296;2022-09-09T06:19:59;10.8;;;5.3;;
64022;SDS011;50264;52.088;5.296;2022-09-09T06:23:13;8.2;;;5.2;;
64022;SDS011;50264;52.088;5.296;2022-09-09T06:24:49;8.6;;;5.5;;
64022;SDS011;50264;52.088;5.296;2022-09-09T06:26:26;6.5;;;4.7;;
64022;SDS011;50264;52.088;5.296;2022-09-09T06:28:03;8.0;;;4.91;;
64022;SDS011;50264;52.088;5.296;2022-09-09T06:31:17;11.7;;;4.8;;
64022;SDS011;50264;52.088;5.296;2022-09-09T06:32:55;9.71;;;5.11;;
64022;SDS011;50264;52.088;5.296;2022-09-09T06:34:32;14.1;;;5.5;;
64022;SDS011;50264;52.088;5.296;2022-09-09T06:37:48;8.31;;;4.41;;
64022;SDS011;50264;52.088;5.296;2022-09-09T06:39:24;9.0;;;4.41;;
64022;SDS011;50264;52.088;5.296;2022-09-09T06:41:01;9.21;;;4.8;;
64022;SDS011;50264;52.088;5.296;2022-09-09T06:42:38;10.9;;;4.41;;
64022;SDS011;50264;52.088;5.296;2022-09-09T06:45:52;9.0;;;4.7;;
64022;SDS011;50264;52.088;5.296;2022-09-09T06:47:30;13.9;;;4.41;;
64022;SDS011;50264;52.088;5.296;2022-09-09T06:49:07;9.0;;;4.2;;
64022;SDS011;50264;52.088;5.296;2022-09-09T06:52:19;11.5;;;4.41;;
64022;SDS011;50264;52.088;5.296;2022-09-09T06:53:56;8.4;;;4.1;;
64022;SDS011;50264;52.088;5.296;2022-09-09T06:55:34;9.9;;;4.7;;
64022;SDS011;50264;52.088;5.296;2022-09-09T06:58:49;9.5;;;3.8;;
64022;SDS011;50264;52.088;5.296;2022-09-09T07:00:26;10.8;;;4.5;;
64022;SDS011;50264;52.088;5.296;2022-09-09T07:02:03;12.4;;;4.2;;
64022;SDS011;50264;52.088;5.296;2022-09-09T07:03:39;11.3;;;4.0;;
64022;SDS011;50264;52.088;5.296;2022-09-09T07:06:52;15.5;;;4.41;;
64022;SDS011;50264;52.088;5.296;2022-09-09T07:08:28;14.5;;;4.2;;
64022;SDS011;50264;52.088;5.296;2022-09-09T07:10:04;9.9;;;4.2;;
64022;SDS011;50264;52.088;5.296;2022-09-09T07:13:23;8.31;;;4.41;;
64022;SDS011;50264;52.088;5.296;2022-09-09T07:15:01;8.5;;;3.6;;
64022;SDS011;50264;52.088;5.296;2022-09-09T07:16:37;10.3;;;4.0;;
64022;SDS011;50264;52.088;5.296;2022-09-09T07:18:13;5.8;;;3.1;;
64022;SDS011;50264;52.088;5.296;2022-09-09T07:21:26;13.9;;;3.6;;
64022;SDS011;50264;52.088;5.296;2022-09-09T07:23:04;9.9;;;3.7;;
64022;SDS011;50264;52.088;5.296;2022-09-09T07:24:40;9.9;;;3.7;;
64022;SDS011;50264;52.088;5.296;2022-09-09T07:27:57;7.1;;;3.3;;
64022;SDS011;50264;52.088;5.296;2022-09-09T07:29:33;13.8;;;4.2;;
64022;SDS011;50264;52.088;5.296;2022-09-09T07:31:12;12.9;;;4.1;;
64022;SDS011;50264;52.088;5.296;2022-09-09T07:32:51;7.8;;;3.8;;
64022;SDS011;50264;52.088;5.296;2022-09-09T07:36:05;8.6;;;3.7;;
64022;SDS011;50264;52.088;5.296;2022-09-09T07:37:43;6.4;;;3.7;;
64022;SDS011;50264;52.088;5.296;2022-09-09T07:39:20;10.1;;;4.1;;
64022;SDS011;50264;52.088;5.296;2022-09-09T07:42:39;6.8;;;3.8;;
64022;SDS011;50264;52.088;5.296;2022-09-09T07:44:17;12.4;;;4.1;;
64022;SDS011;50264;52.088;5.296;2022-09-09T07:45:56;12.4;;;4.1;;
64022;SDS011;50264;52.088;5.296;2022-09-09T07:47:34;11.2;;;4.2;;
64022;SDS011;50264;52.088;5.296;2022-09-09T07:50:47;8.2;;;3.5;;
64022;SDS011;50264;52.088;5.296;2022-09-09T07:52:23;10.6;;;4.1;;
64022;SDS011;50264;52.088;5.296;2022-09-09T07:54:01;10.0;;;4.5;;
64022;SDS011;50264;52.088;5.296;2022-09-09T07:57:15;8.9;;;3.5;;
64022;SDS011;50264;52.088;5.296;2022-09-09T07:58:53;12.9;;;3.8;;
64022;SDS011;50264;52.088;5.296;2022-09-09T08:00:30;12.2;;;4.1;;
64022;SDS011;50264;52.088;5.296;2022-09-09T08:02:06;11.1;;;4.1;;
64022;SDS011;50264;52.088;5.296;2022-09-09T08:05:28;9.4;;;3.5;;
64022;SDS011;50264;52.088;5.296;2022-09-09T08:07:04;10.5;;;4.0;;
64022;SDS011;50264;52.088;5.296;2022-09-09T08:08:41;8.5;;;3.7;;
64022;SDS011;50264;52.088;5.296;2022-09-09T08:11:56;8.9;;;4.0;;
64022;SDS011;50264;52.088;5.296;2022-09-09T08:13:33;8.81;;;3.6;;
64022;SDS011;50264;52.088;5.296;2022-09-09T08:15:10;5.3;;;3.6;;
64022;SDS011;50264;52.088;5.296;2022-09-09T08:16:47;10.3;;;3.7;;
64022;SDS011;50264;52.088;5.296;2022-09-09T08:20:05;10.5;;;3.7;;
64022;SDS011;50264;52.088;5.296;2022-09-09T08:21:42;13.0;;;4.0;;
64022;SDS011;50264;52.088;5.296;2022-09-09T08:23:20;10.0;;;3.9;;
64022;SDS011;50264;52.088;5.296;2022-09-09T08:26:35;8.0;;;3.0;;
64022;SDS011;50264;52.088;5.296;2022-09-09T08:28:12;7.4;;;3.3;;
64022;SDS011;50264;52.088;5.296;2022-09-09T08:29:48;8.4;;;2.8;;
64022;SDS011;50264;52.088;5.296;2022-09-09T08:31:25;9.21;;;3.1;;
64022;SDS011;50264;52.088;5.296;2022-09-09T08:34:41;6.8;;;2.9;;
64022;SDS011;50264;52.088;5.296;2022-09-09T08:36:19;7.7;;;3.3;;
64022;SDS011;50264;52.088;5.296;2022-09-09T08:37:58;12.8;;;3.6;;
64022;SDS011;50264;52.088;5.296;2022-09-09T08:41:15;6.7;;;3.0;;
64022;SDS011;50264;52.088;5.296;2022-09-09T08:43:42;9.5;;;3.5;;
64022;SDS011;50264;52.088;5.296;2022-09-09T08:45:25;9.6;;;3.2;;
64022;SDS011;50264;52.088;5.296;2022-09-09T08:47:08;9.6;;;3.1;;
64022;SDS011;50264;52.088;5.296;2022-09-09T08:48:59;10.5;;;3.0;;
64022;SDS011;50264;52.088;5.296;2022-09-09T08:50:43;10.4;;;3.6;;
64022;SDS011;50264;52.088;5.296;2022-09-09T08:52:22;13.5;;;3.7;;
64022;SDS011;50264;52.088;5.296;2022-09-09T08:55:42;9.0;;;3.1;;
64022;SDS011;50264;52.088;5.296;2022-09-09T08:57:21;8.9;;;3.3;;
64022;SDS011;50264;52.088;5.296;2022-09-09T08:59:03;6.8;;;2.6;;
64022;SDS011;50264;52.088;5.296;2022-09-09T09:00:44;6.8;;;2.6;;
64022;SDS011;50264;52.088;5.296;2022-09-09T09:02:46;7.8;;;3.0;;
64022;SDS011;50264;52.088;5.296;2022-09-09T09:06:33;9.0;;;3.3;;
64022;SDS011;50264;52.088;5.296;2022-09-09T09:08:22;7.6;;;3.3;;
64022;SDS011;50264;52.088;5.296;2022-09-09T09:10:09;11.1;;;3.5;;
64022;SDS011;50264;52.088;5.296;2022-09-09T09:12:01;9.6;;;3.3;;
64022;SDS011;50264;52.088;5.296;2022-09-09T09:13:44;9.31;;;3.0;;
64022;SDS011;50264;52.088;5.296;2022-09-09T09:15:30;7.9;;;3.0;;
64022;SDS011;50264;52.088;5.296;2022-09-09T09:18:54;6.5;;;2.7;;
64022;SDS011;50264;52.088;5.296;2022-09-09T09:20:32;7.1;;;3.2;;
64022;SDS011;50264;52.088;5.296;2022-09-09T09:22:20;7.4;;;3.3;;
64022;SDS011;50264;52.088;5.296;2022-09-09T09:23:59;5.7;;;2.5;;
64022;SDS011;50264;52.088;5.296;2022-09-09T09:27:20;9.1;;;3.2;;
64022;SDS011;50264;52.088;5.296;2022-09-09T09:29:10;11.3;;;2.7;;
64022;SDS011;50264;52.088;5.296;2022-09-09T09:30:49;7.0;;;3.1;;
64022;SDS011;50264;52.088;5.296;2022-09-09T09:32:30;9.21;;;3.4;;
64022;SDS011;50264;52.088;5.296;2022-09-09T09:34:12;6.0;;;2.7;;
64022;SDS011;50264;52.088;5.296;2022-09-09T09:37:26;12.5;;;3.3;;
64022;SDS011;50264;52.088;5.296;2022-09-09T09:39:06;12.5;;;3.3;;
64022;SDS011;50264;52.088;5.296;2022-09-09T09:40:48;13.6;;;3.3;;
64022;SDS011;50264;52.088;5.296;2022-09-09T09:44:06;9.5;;;2.9;;
64022;SDS011;50264;52.088;5.296;2022-09-09T09:46:00;9.1;;;2.9;;
64022;SDS011;50264;52.088;5.296;2022-09-09T09:47:40;8.71;;;3.2;;
64022;SDS011;50264;52.088;5.296;2022-09-09T09:49:17;7.7;;;2.6;;
64022;SDS011;50264;52.088;5.296;2022-09-09T09:50:54;8.9;;;3.2;;
64022;SDS011;50264;52.088;5.296;2022-09-09T09:54:14;8.9;;;3.2;;
64022;SDS011;50264;52.088;5.296;2022-09-09T09:55:59;8.2;;;3.3;;
64022;SDS011;50264;52.088;5.296;2022-09-09T09:57:39;10.9;;;3.9;;
64022;SDS011;50264;52.088;5.296;2022-09-09T09:59:19;10.6;;;3.5;;
64022;SDS011;50264;52.088;5.296;2022-09-09T10:02:59;7.6;;;3.3;;
64022;SDS011;50264;52.088;5.296;2022-09-09T10:04:35;13.1;;;4.0;;
64022;SDS011;50264;52.088;5.296;2022-09-09T10:06:12;8.2;;;3.3;;
64022;SDS011;50264;52.088;5.296;2022-09-09T10:07:59;10.6;;;3.7;;
64022;SDS011;50264;52.088;5.296;2022-09-09T10:11:20;11.4;;;3.5;;
64022;SDS011;50264;52.088;5.296;2022-09-09T10:13:07;10.1;;;3.6;;
64022;SDS011;50264;52.088;5.296;2022-09-09T10:14:52;13.9;;;3.8;;
64022;SDS011;50264;52.088;5.296;2022-09-09T10:16:42;9.4;;;3.5;;
64022;SDS011;50264;52.088;5.296;2022-09-09T10:18:36;11.9;;;3.6;;
64022;SDS011;50264;52.088;5.296;2022-09-09T10:20:27;9.81;;;3.2;;
64022;SDS011;50264;52.088;5.296;2022-09-09T10:24:07;14.2;;;3.4;;
64022;SDS011;50264;52.088;5.296;2022-09-09T10:26:04;10.3;;;3.0;;
64022;SDS011;50264;52.088;5.296;2022-09-09T10:29:08;7.8;;;3.1;;
64022;SDS011;50264;52.088;5.296;2022-09-09T10:30:58;7.1;;;3.3;;
64022;SDS011;50264;52.088;5.296;2022-09-09T10:32:53;8.9;;;3.5;;
64022;SDS011;50264;52.088;5.296;2022-09-09T10:36:32;12.5;;;3.9;;
64022;SDS011;50264;52.088;5.296;2022-09-09T10:38:16;12.8;;;3.5;;
64022;SDS011;50264;52.088;5.296;2022-09-09T10:40:00;11.8;;;3.7;;
64022;SDS011;50264;52.088;5.296;2022-09-09T10:41:52;8.1;;;3.3;;
64022;SDS011;50264;52.088;5.296;2022-09-09T10:43:43;11.8;;;3.7;;
64022;SDS011;50264;52.088;5.296;2022-09-09T10:45:36;12.2;;;4.0;;
64022;SDS011;50264;52.088;5.296;2022-09-09T10:47:28;11.7;;;4.1;;
64022;SDS011;50264;52.088;5.296;2022-09-09T10:51:23;7.2;;;3.3;;
64022;SDS011;50264;52.088;5.296;2022-09-09T10:53:08;10.1;;;3.8;;
64022;SDS011;50264;52.088;5.296;2022-09-09T10:54:53;11.2;;;3.9;;
64022;SDS011;50264;52.088;5.296;2022-09-09T10:56:36;12.1;;;3.5;;
64022;SDS011;50264;52.088;5.296;2022-09-09T10:58:14;17.2;;;4.5;;
64022;SDS011;50264;52.088;5.296;2022-09-09T11:00:02;9.1;;;3.6;;
64022;SDS011;50264;52.088;5.296;2022-09-09T11:03:24;8.31;;;3.4;;
64022;SDS011;50264;52.088;5.296;2022-09-09T11:05:03;7.6;;;3.6;;
64022;SDS011;50264;52.088;5.296;2022-09-09T11:06:53;9.71;;;3.5;;
64022;SDS011;50264;52.088;5.296;2022-09-09T11:08:31;7.9;;;3.3;;
64022;SDS011;50264;52.088;5.296;2022-09-09T11:12:00;7.1;;;3.3;;
64022;SDS011;50264;52.088;5.296;2022-09-09T11:13:39;6.6;;;2.9;;
64022;SDS011;50264;52.088;5.296;2022-09-09T11:15:23;7.5;;;3.2;;
64022;SDS011;50264;52.088;5.296;2022-09-09T11:17:15;10.21;;;3.0;;
64022;SDS011;50264;52.088;5.296;2022-09-09T11:19:00;5.2;;;2.7;;
64022;SDS011;50264;52.088;5.296;2022-09-09T11:22:22;9.0;;;3.5;;
64022;SDS011;50264;52.088;5.296;2022-09-09T11:24:13;7.2;;;3.0;;
64022;SDS011;50264;52.088;5.296;2022-09-09T11:25:57;7.5;;;3.0;;
64022;SDS011;50264;52.088;5.296;2022-09-09T11:27:41;10.3;;;3.6;;
64022;SDS011;50264;52.088;5.296;2022-09-09T11:29:49;5.7;;;3.0;;
64022;SDS011;50264;52.088;5.296;2022-09-09T11:31:43;10.8;;;3.0;;
64022;SDS011;50264;52.088;5.296;2022-09-09T11:33:41;7.2;;;2.9;;
64022;SDS011;50264;52.088;5.296;2022-09-09T11:35:34;9.1;;;3.4;;
64022;SDS011;50264;52.088;5.296;2022-09-09T11:39:27;7.8;;;3.0;;
64022;SDS011;50264;52.088;5.296;2022-09-09T11:41:40;11.2;;;3.3;;
64022;SDS011;50264;52.088;5.296;2022-09-09T11:43:18;6.5;;;2.4;;
64022;SDS011;50264;52.088;5.296;2022-09-09T11:45:08;5.2;;;2.31;;
64022;SDS011;50264;52.088;5.296;2022-09-09T11:46:46;7.6;;;3.1;;
64022;SDS011;50264;52.088;5.296;2022-09-09T11:48:29;7.3;;;2.5;;
64022;SDS011;50264;52.088;5.296;2022-09-09T11:50:10;5.4;;;2.6;;
64022;SDS011;50264;52.088;5.296;2022-09-09T11:53:56;10.1;;;3.3;;
64022;SDS011;50264;52.088;5.296;2022-09-09T11:55:36;10.21;;;2.6;;
64022;SDS011;50264;52.088;5.296;2022-09-09T11:57:16;9.1;;;3.2;;
64022;SDS011;50264;52.088;5.296;2022-09-09T11:59:02;8.81;;;3.1;;
64022;SDS011;50264;52.088;5.296;2022-09-09T12:00:42;7.4;;;2.9;;
64022;SDS011;50264;52.088;5.296;2022-09-09T12:04:05;12.3;;;3.1;;
64022;SDS011;50264;52.088;5.296;2022-09-09T12:05:49;5.7;;;2.8;;
64022;SDS011;50264;52.088;5.296;2022-09-09T12:07:30;5.5;;;3.1;;
64022;SDS011;50264;52.088;5.296;2022-09-09T12:09:16;12.1;;;3.5;;
64022;SDS011;50264;52.088;5.296;2022-09-09T12:12:36;8.81;;;3.2;;
64022;SDS011;50264;52.088;5.296;2022-09-09T12:14:22;6.6;;;3.0;;
64022;SDS011;50264;52.088;5.296;2022-09-09T12:16:27;13.2;;;3.3;;
64022;SDS011;50264;52.088;5.296;2022-09-09T12:18:04;10.4;;;3.9;;
64022;SDS011;50264;52.088;5.296;2022-09-09T12:19:59;9.31;;;3.7;;
64022;SDS011;50264;52.088;5.296;2022-09-09T12:21:39;7.2;;;3.3;;
64022;SDS011;50264;52.088;5.296;2022-09-09T12:25:16;9.71;;;3.4;;
64022;SDS011;50264;52.088;5.296;2022-09-09T12:27:01;6.4;;;3.2;;
64022;SDS011;50264;52.088;5.296;2022-09-09T12:28:47;7.0;;;3.1;;
64022;SDS011;50264;52.088;5.296;2022-09-09T12:30:32;10.9;;;3.9;;
64022;SDS011;50264;52.088;5.296;2022-09-09T12:32:19;9.0;;;3.8;;
64022;SDS011;50264;52.088;5.296;2022-09-09T12:35:52;8.31;;;3.5;;
64022;SDS011;50264;52.088;5.296;2022-09-09T12:37:32;8.31;;;3.5;;
64022;SDS011;50264;52.088;5.296;2022-09-09T12:39:15;6.8;;;3.6;;
64022;SDS011;50264;52.088;5.296;2022-09-09T12:40:56;8.81;;;3.5;;
64022;SDS011;50264;52.088;5.296;2022-09-09T12:42:33;9.81;;;3.4;;
64022;SDS011;50264;52.088;5.296;2022-09-09T12:45:57;7.2;;;3.7;;
64022;SDS011;50264;52.088;5.296;2022-09-09T12:47:39;7.4;;;2.9;;
64022;SDS011;50264;52.088;5.296;2022-09-09T12:49:25;8.0;;;3.3;;
64022;SDS011;50264;52.088;5.296;2022-09-09T12:51:07;6.4;;;3.3;;
64022;SDS011;50264;52.088;5.296;2022-09-09T12:52:59;7.2;;;3.4;;
64022;SDS011;50264;52.088;5.296;2022-09-09T12:56:21;7.3;;;3.6;;